sensor_id;sensor_type;location;lat;lon;timestamp;pressure;altitude;pressure_sealevel;temperature;humidity
43298;BME280;28892;55.640;37.532;2024-02-16T00:01:37;100326.94;;;-7.54;63.21
43298;BME280;28892;55.640;37.532;2024-02-16T00:04:03;100324.72;;;-8.04;63.49
43298;BME280;28892;55.640;37.532;2024-02-16T00:06:28;100327.25;;;-8.03;64.11
43298;BME280;28892;55.640;37.532;2024-02-16T00:08:54;100331.28;;;-7.91;64.18
43298;BME280;28892;55.640;37.532;2024-02-16T00:11:19;100330.66;;;-7.64;63.88
43298;BME280;28892;55.640;37.532;2024-02-16T00:13:45;100324.72;;;-7.68;63.80
43298;BME280;28892;55.640;37.532;2024-02-16T00:16:11;100323.88;;;-7.68;63.84
43298;BME280;28892;55.640;37.532;2024-02-16T00:18:37;100323.16;;;-8.11;63.47
43298;BME280;28892;55.640;37.532;2024-02-16T00:21:03;100325.06;;;-8.58;64.78
43298;BME280;28892;55.640;37.532;2024-02-16T00:23:29;100322.84;;;-8.35;65.28
43298;BME280;28892;55.640;37.532;2024-02-16T00:25:54;100324.25;;;-8.60;65.70
43298;BME280;28892;55.640;37.532;2024-02-16T00:28:20;100318.44;;;-8.68;66.11
43298;BME280;28892;55.640;37.532;2024-02-16T00:31:03;100316.16;;;-8.05;64.35
43298;BME280;28892;55.640;37.532;2024-02-16T00:33:32;100313.91;;;-8.57;65.17
43298;BME280;28892;55.640;37.532;2024-02-16T00:35:58;100312.41;;;-8.67;65.79
43298;BME280;28892;55.640;37.532;2024-02-16T00:38:24;100310.41;;;-8.54;66.14
43298;BME280;28892;55.640;37.532;2024-02-16T00:40:50;100305.63;;;-8.71;65.96
43298;BME280;28892;55.640;37.532;2024-02-16T00:43:16;100304.47;;;-8.58;65.31
43298;BME280;28892;55.640;37.532;2024-02-16T00:45:43;100300.50;;;-8.71;66.02
43298;BME280;28892;55.640;37.532;2024-02-16T00:48:10;100300.50;;;-8.33;65.56
43298;BME280;28892;55.640;37.532;2024-02-16T00:50:37;100296.13;;;-8.30;65.76
43298;BME280;28892;55.640;37.532;2024-02-16T00:53:03;100301.38;;;-8.72;66.04
43298;BME280;28892;55.640;37.532;2024-02-16T00:55:29;100308.41;;;-8.80;66.46
43298;BME280;28892;55.640;37.532;2024-02-16T00:57:56;100298.97;;;-9.24;67.00
43298;BME280;28892;55.640;37.532;2024-02-16T01:00:21;100303.75;;;-8.63;67.31
43298;BME280;28892;55.640;37.532;2024-02-16T01:02:49;100295.31;;;-8.32;66.61
43298;BME280;28892;55.640;37.532;2024-02-16T01:05:14;100293.56;;;-8.30;66.08
43298;BME280;28892;55.640;37.532;2024-02-16T01:07:43;100300.19;;;-8.56;66.21
43298;BME280;28892;55.640;37.532;2024-02-16T01:10:10;100301.69;;;-8.10;65.82
43298;BME280;28892;55.640;37.532;2024-02-16T01:12:35;100302.63;;;-8.51;65.32
43298;BME280;28892;55.640;37.532;2024-02-16T01:15:02;100302.53;;;-8.86;66.00
43298;BME280;28892;55.640;37.532;2024-02-16T01:17:28;100302.25;;;-8.35;66.24
43298;BME280;28892;55.640;37.532;2024-02-16T01:19:54;100309.50;;;-8.51;65.96
43298;BME280;28892;55.640;37.532;2024-02-16T01:22:20;100312.53;;;-9.17;67.26
43298;BME280;28892;55.640;37.532;2024-02-16T01:24:46;100314.50;;;-8.85;67.09
43298;BME280;28892;55.640;37.532;2024-02-16T01:27:11;100307.22;;;-8.64;66.77
43298;BME280;28892;55.640;37.532;2024-02-16T01:29:37;100312.53;;;-8.73;66.70
43298;BME280;28892;55.640;37.532;2024-02-16T01:32:02;100311.31;;;-8.57;66.38
43298;BME280;28892;55.640;37.532;2024-02-16T01:34:28;100297.91;;;-8.33;65.79
43298;BME280;28892;55.640;37.532;2024-02-16T01:36:55;100303.06;;;-8.71;66.09
43298;BME280;28892;55.640;37.532;2024-02-16T01:39:21;100301.50;;;-8.78;66.83
43298;BME280;28892;55.640;37.532;2024-02-16T01:41:46;100300.81;;;-8.47;66.73
43298;BME280;28892;55.640;37.532;2024-02-16T01:44:12;100301.09;;;-8.60;66.35
43298;BME280;28892;55.640;37.532;2024-02-16T01:46:37;100298.28;;;-8.49;66.67
43298;BME280;28892;55.640;37.532;2024-02-16T01:49:03;100315.63;;;-8.56;66.49
43298;BME280;28892;55.640;37.532;2024-02-16T01:51:29;100304.63;;;-8.64;66.74
43298;BME280;28892;55.640;37.532;2024-02-16T01:53:55;100297.72;;;-8.60;66.00
43298;BME280;28892;55.640;37.532;2024-02-16T01:56:21;100297.41;;;-8.87;66.94
43298;BME280;28892;55.640;37.532;2024-02-16T01:58:47;100287.00;;;-8.43;66.57
43298;BME280;28892;55.640;37.532;2024-02-16T02:01:14;100293.94;;;-8.09;65.68
43298;BME280;28892;55.640;37.532;2024-02-16T02:03:39;100296.22;;;-8.71;65.42
43298;BME280;28892;55.640;37.532;2024-02-16T02:06:05;100289.63;;;-8.46;66.22
43298;BME280;28892;55.640;37.532;2024-02-16T02:08:30;100285.88;;;-8.69;66.59
43298;BME280;28892;55.640;37.532;2024-02-16T02:10:56;100281.97;;;-8.49;66.44
43298;BME280;28892;55.640;37.532;2024-02-16T02:13:21;100286.47;;;-8.58;66.24
43298;BME280;28892;55.640;37.532;2024-02-16T02:15:47;100282.47;;;-8.71;66.47
43298;BME280;28892;55.640;37.532;2024-02-16T02:18:13;100291.56;;;-8.54;66.58
43298;BME280;28892;55.640;37.532;2024-02-16T02:20:38;100286.00;;;-8.00;64.82
43298;BME280;28892;55.640;37.532;2024-02-16T02:23:04;100290.88;;;-8.61;65.40
43298;BME280;28892;55.640;37.532;2024-02-16T02:25:30;100287.59;;;-8.70;66.59
43298;BME280;28892;55.640;37.532;2024-02-16T02:27:55;100288.88;;;-8.91;66.19
43298;BME280;28892;55.640;37.532;2024-02-16T02:30:21;100294.91;;;-8.92;66.86
43298;BME280;28892;55.640;37.532;2024-02-16T02:32:47;100286.13;;;-8.42;66.66
43298;BME280;28892;55.640;37.532;2024-02-16T02:35:14;100287.34;;;-8.57;66.29
43298;BME280;28892;55.640;37.532;2024-02-16T02:37:40;100282.97;;;-8.53;66.38
43298;BME280;28892;55.640;37.532;2024-02-16T02:40:06;100285.75;;;-8.63;66.17
43298;BME280;28892;55.640;37.532;2024-02-16T02:42:33;100279.75;;;-8.63;66.46
43298;BME280;28892;55.640;37.532;2024-02-16T02:44:59;100286.91;;;-8.78;66.71
43298;BME280;28892;55.640;37.532;2024-02-16T02:47:24;100292.09;;;-8.79;66.77
43298;BME280;28892;55.640;37.532;2024-02-16T02:49:50;100288.50;;;-9.15;67.61
43298;BME280;28892;55.640;37.532;2024-02-16T02:52:15;100296.03;;;-9.05;67.84
43298;BME280;28892;55.640;37.532;2024-02-16T02:54:43;100283.81;;;-8.92;67.63
43298;BME280;28892;55.640;37.532;2024-02-16T02:57:09;100295.00;;;-8.96;67.45
43298;BME280;28892;55.640;37.532;2024-02-16T02:59:34;100288.75;;;-8.83;67.80
43298;BME280;28892;55.640;37.532;2024-02-16T03:02:00;100294.09;;;-8.94;67.51
43298;BME280;28892;55.640;37.532;2024-02-16T03:04:25;100299.50;;;-8.64;67.51
43298;BME280;28892;55.640;37.532;2024-02-16T03:06:51;100296.22;;;-8.33;67.10
43298;BME280;28892;55.640;37.532;2024-02-16T03:09:17;100305.66;;;-8.35;66.54
43298;BME280;28892;55.640;37.532;2024-02-16T03:11:42;100297.50;;;-8.15;66.26
43298;BME280;28892;55.640;37.532;2024-02-16T03:14:08;100305.31;;;-8.18;66.03
43298;BME280;28892;55.640;37.532;2024-02-16T03:16:34;100310.06;;;-8.38;66.33
43298;BME280;28892;55.640;37.532;2024-02-16T03:18:59;100304.16;;;-8.44;66.20
43298;BME280;28892;55.640;37.532;2024-02-16T03:21:25;100298.53;;;-8.22;65.86
43298;BME280;28892;55.640;37.532;2024-02-16T03:23:51;100303.06;;;-8.71;65.97
43298;BME280;28892;55.640;37.532;2024-02-16T03:26:17;100308.31;;;-8.76;66.49
43298;BME280;28892;55.640;37.532;2024-02-16T03:28:43;100303.13;;;-8.74;67.18
43298;BME280;28892;55.640;37.532;2024-02-16T03:31:19;100304.44;;;-8.18;66.41
43298;BME280;28892;55.640;37.532;2024-02-16T03:33:45;100308.31;;;-8.36;65.96
43298;BME280;28892;55.640;37.532;2024-02-16T03:36:12;100313.66;;;-8.46;66.10
43298;BME280;28892;55.640;37.532;2024-02-16T03:38:42;100327.84;;;-8.67;66.18
43298;BME280;28892;55.640;37.532;2024-02-16T03:41:12;100322.97;;;-8.42;66.52
43298;BME280;28892;55.640;37.532;2024-02-16T03:43:38;100326.66;;;-8.14;66.38
43298;BME280;28892;55.640;37.532;2024-02-16T03:46:03;100334.59;;;-8.61;66.19
43298;BME280;28892;55.640;37.532;2024-02-16T03:48:29;100324.53;;;-8.34;66.27
43298;BME280;28892;55.640;37.532;2024-02-16T03:50:55;100326.41;;;-8.39;66.32
43298;BME280;28892;55.640;37.532;2024-02-16T03:53:21;100319.59;;;-8.04;66.13
43298;BME280;28892;55.640;37.532;2024-02-16T03:55:50;100315.75;;;-8.24;65.80
43298;BME280;28892;55.640;37.532;2024-02-16T03:58:16;100312.53;;;-7.96;65.76
43298;BME280;28892;55.640;37.532;2024-02-16T04:00:42;100305.78;;;-7.67;64.75
43298;BME280;28892;55.640;37.532;2024-02-16T04:03:08;100309.81;;;-8.28;65.32
43298;BME280;28892;55.640;37.532;2024-02-16T04:05:35;100307.44;;;-8.37;65.70
43298;BME280;28892;55.640;37.532;2024-02-16T04:08:00;100308.00;;;-8.22;66.25
43298;BME280;28892;55.640;37.532;2024-02-16T04:10:29;100300.50;;;-8.33;66.40
43298;BME280;28892;55.640;37.532;2024-02-16T04:12:54;100297.44;;;-8.13;66.30
43298;BME280;28892;55.640;37.532;2024-02-16T04:15:20;100300.78;;;-8.08;65.99
43298;BME280;28892;55.640;37.532;2024-02-16T04:17:46;100295.41;;;-7.98;66.06
43298;BME280;28892;55.640;37.532;2024-02-16T04:20:14;100293.19;;;-8.14;65.70
43298;BME280;28892;55.640;37.532;2024-02-16T04:22:40;100308.94;;;-8.27;66.22
43298;BME280;28892;55.640;37.532;2024-02-16T04:25:07;100295.91;;;-8.20;65.62
43298;BME280;28892;55.640;37.532;2024-02-16T04:27:33;100296.09;;;-7.92;65.79
43298;BME280;28892;55.640;37.532;2024-02-16T04:29:59;100289.38;;;-7.97;65.41
43298;BME280;28892;55.640;37.532;2024-02-16T04:32:24;100280.47;;;-7.51;63.91
43298;BME280;28892;55.640;37.532;2024-02-16T04:34:51;100274.28;;;-7.44;63.74
43298;BME280;28892;55.640;37.532;2024-02-16T04:37:27;100282.09;;;-7.47;63.65
43298;BME280;28892;55.640;37.532;2024-02-16T04:39:52;100285.53;;;-7.48;63.76
43298;BME280;28892;55.640;37.532;2024-02-16T04:42:18;100294.22;;;-7.50;63.70
43298;BME280;28892;55.640;37.532;2024-02-16T04:44:44;100285.72;;;-7.54;63.82
43298;BME280;28892;55.640;37.532;2024-02-16T04:47:09;100290.50;;;-8.09;63.63
43298;BME280;28892;55.640;37.532;2024-02-16T04:49:35;100293.19;;;-8.14;64.70
43298;BME280;28892;55.640;37.532;2024-02-16T04:52:02;100297.50;;;-8.15;64.97
43298;BME280;28892;55.640;37.532;2024-02-16T04:54:27;100288.72;;;-8.06;65.03
43298;BME280;28892;55.640;37.532;2024-02-16T04:56:53;100292.84;;;-7.64;64.07
43298;BME280;28892;55.640;37.532;2024-02-16T04:59:18;100288.75;;;-7.73;63.98
43298;BME280;28892;55.640;37.532;2024-02-16T05:01:45;100293.97;;;-7.74;63.96
43298;BME280;28892;55.640;37.532;2024-02-16T05:04:12;100289.63;;;-7.72;64.04
43298;BME280;28892;55.640;37.532;2024-02-16T05:06:42;100286.06;;;-7.68;63.58
43298;BME280;28892;55.640;37.532;2024-02-16T05:09:08;100289.50;;;-8.04;63.85
43298;BME280;28892;55.640;37.532;2024-02-16T05:11:34;100298.13;;;-8.43;64.62
43298;BME280;28892;55.640;37.532;2024-02-16T05:13:59;100290.72;;;-7.82;64.33
43298;BME280;28892;55.640;37.532;2024-02-16T05:16:25;100293.44;;;-8.23;64.85
43298;BME280;28892;55.640;37.532;2024-02-16T05:18:52;100280.44;;;-7.82;64.47
43298;BME280;28892;55.640;37.532;2024-02-16T05:21:18;100283.38;;;-7.98;64.71
43298;BME280;28892;55.640;37.532;2024-02-16T05:23:43;100277.09;;;-7.88;64.23
43298;BME280;28892;55.640;37.532;2024-02-16T05:26:09;100279.50;;;-7.80;64.31
43298;BME280;28892;55.640;37.532;2024-02-16T05:28:35;100279.91;;;-8.33;64.21
43298;BME280;28892;55.640;37.532;2024-02-16T05:31:03;100296.81;;;-8.59;65.51
43298;BME280;28892;55.640;37.532;2024-02-16T05:33:41;100292.97;;;-8.05;65.31
43298;BME280;28892;55.640;37.532;2024-02-16T05:36:08;100301.00;;;-8.55;65.96
43298;BME280;28892;55.640;37.532;2024-02-16T05:38:34;100301.47;;;-8.37;66.18
43298;BME280;28892;55.640;37.532;2024-02-16T05:41:07;100316.47;;;-8.98;66.46
43298;BME280;28892;55.640;37.532;2024-02-16T05:43:33;100319.81;;;-8.94;67.09
43298;BME280;28892;55.640;37.532;2024-02-16T05:45:59;100310.91;;;-8.38;66.92
43298;BME280;28892;55.640;37.532;2024-02-16T05:48:26;100317.03;;;-8.06;66.44
43298;BME280;28892;55.640;37.532;2024-02-16T05:50:57;100313.06;;;-8.19;65.45
43298;BME280;28892;55.640;37.532;2024-02-16T05:53:25;100324.31;;;-8.61;66.50
43298;BME280;28892;55.640;37.532;2024-02-16T05:55:51;100317.13;;;-8.09;65.89
43298;BME280;28892;55.640;37.532;2024-02-16T05:58:19;100321.28;;;-8.05;65.69
43298;BME280;28892;55.640;37.532;2024-02-16T06:00:45;100336.09;;;-7.77;65.02
43298;BME280;28892;55.640;37.532;2024-02-16T06:03:13;100328.91;;;-7.98;64.13
43298;BME280;28892;55.640;37.532;2024-02-16T06:05:39;100338.00;;;-7.85;64.33
43298;BME280;28892;55.640;37.532;2024-02-16T06:08:07;100322.94;;;-8.01;64.07
43298;BME280;28892;55.640;37.532;2024-02-16T06:10:33;100321.09;;;-7.95;64.01
43298;BME280;28892;55.640;37.532;2024-02-16T06:13:00;100325.94;;;-8.19;64.34
43298;BME280;28892;55.640;37.532;2024-02-16T06:15:26;100323.97;;;-8.09;64.56
43298;BME280;28892;55.640;37.532;2024-02-16T06:17:52;100320.97;;;-7.91;64.57
43298;BME280;28892;55.640;37.532;2024-02-16T06:20:18;100326.28;;;-7.62;64.14
43298;BME280;28892;55.640;37.532;2024-02-16T06:22:45;100319.09;;;-7.49;63.72
43298;BME280;28892;55.640;37.532;2024-02-16T06:25:11;100326.38;;;-7.32;63.24
43298;BME280;28892;55.640;37.532;2024-02-16T06:27:38;100329.25;;;-7.78;62.91
43298;BME280;28892;55.640;37.532;2024-02-16T06:30:05;100338.59;;;-8.10;63.84
43298;BME280;28892;55.640;37.532;2024-02-16T06:32:32;100331.22;;;-8.25;64.16
43298;BME280;28892;55.640;37.532;2024-02-16T06:34:58;100337.09;;;-7.82;64.23
43298;BME280;28892;55.640;37.532;2024-02-16T06:37:25;100333.59;;;-7.80;64.08
43298;BME280;28892;55.640;37.532;2024-02-16T06:39:51;100329.91;;;-7.69;64.02
43298;BME280;28892;55.640;37.532;2024-02-16T06:42:18;100338.28;;;-7.96;64.30
43298;BME280;28892;55.640;37.532;2024-02-16T06:44:44;100333.72;;;-7.84;64.57
43298;BME280;28892;55.640;37.532;2024-02-16T06:47:11;100339.72;;;-8.22;64.54
43298;BME280;28892;55.640;37.532;2024-02-16T06:49:37;100338.50;;;-8.45;64.94
43298;BME280;28892;55.640;37.532;2024-02-16T06:52:04;100338.81;;;-8.21;65.60
43298;BME280;28892;55.640;37.532;2024-02-16T06:54:31;100336.94;;;-7.76;64.84
43298;BME280;28892;55.640;37.532;2024-02-16T06:56:57;100330.41;;;-7.91;64.28
43298;BME280;28892;55.640;37.532;2024-02-16T06:59:23;100323.56;;;-7.91;64.18
43298;BME280;28892;55.640;37.532;2024-02-16T07:01:50;100322.09;;;-7.66;64.43
43298;BME280;28892;55.640;37.532;2024-02-16T07:04:16;100319.19;;;-7.87;64.17
43298;BME280;28892;55.640;37.532;2024-02-16T07:06:43;100326.53;;;-8.08;64.32
43298;BME280;28892;55.640;37.532;2024-02-16T07:09:08;100324.50;;;-7.59;63.84
43298;BME280;28892;55.640;37.532;2024-02-16T07:11:38;100327.63;;;-7.47;63.34
43298;BME280;28892;55.640;37.532;2024-02-16T07:17:33;100326.63;;;-7.41;63.54
43298;BME280;28892;55.640;37.532;2024-02-16T07:20:31;100325.03;;;-7.46;62.90
43298;BME280;28892;55.640;37.532;2024-02-16T07:26:26;100334.78;;;-7.24;63.24
43298;BME280;28892;55.640;37.532;2024-02-16T07:28:54;100325.38;;;-7.26;63.15
43298;BME280;28892;55.640;37.532;2024-02-16T07:31:32;100314.75;;;-6.82;62.27
43298;BME280;28892;55.640;37.532;2024-02-16T07:34:08;100319.03;;;-6.83;62.28
43298;BME280;28892;55.640;37.532;2024-02-16T07:36:34;100323.31;;;-6.82;61.93
43298;BME280;28892;55.640;37.532;2024-02-16T07:39:04;100325.59;;;-7.34;61.97
43298;BME280;28892;55.640;37.532;2024-02-16T07:48:16;100318.53;;;-6.96;62.61
43298;BME280;28892;55.640;37.532;2024-02-16T07:50:43;100319.97;;;-7.85;63.62
43298;BME280;28892;55.640;37.532;2024-02-16T07:53:11;100320.56;;;-8.10;64.85
43298;BME280;28892;55.640;37.532;2024-02-16T07:55:38;100329.63;;;-7.93;65.75
43298;BME280;28892;55.640;37.532;2024-02-16T07:58:03;100320.44;;;-7.34;64.52
43298;BME280;28892;55.640;37.532;2024-02-16T08:00:31;100319.88;;;-7.14;63.62
43298;BME280;28892;55.640;37.532;2024-02-16T08:02:58;100318.25;;;-6.85;62.83
43298;BME280;28892;55.640;37.532;2024-02-16T08:05:24;100323.63;;;-6.93;62.90
43298;BME280;28892;55.640;37.532;2024-02-16T08:07:53;100330.00;;;-7.39;62.79
43298;BME280;28892;55.640;37.532;2024-02-16T08:10:19;100339.66;;;-7.48;63.58
43298;BME280;28892;55.640;37.532;2024-02-16T08:12:48;100340.06;;;-7.63;63.55
43298;BME280;28892;55.640;37.532;2024-02-16T08:15:15;100352.38;;;-7.76;64.29
43298;BME280;28892;55.640;37.532;2024-02-16T08:17:51;100356.31;;;-7.26;64.44
43298;BME280;28892;55.640;37.532;2024-02-16T08:20:19;100361.88;;;-7.09;64.22
43298;BME280;28892;55.640;37.532;2024-02-16T08:22:45;100361.47;;;-7.26;63.88
43298;BME280;28892;55.640;37.532;2024-02-16T08:25:12;100365.50;;;-6.84;63.21
43298;BME280;28892;55.640;37.532;2024-02-16T08:27:39;100361.47;;;-7.61;63.51
43298;BME280;28892;55.640;37.532;2024-02-16T08:30:07;100368.00;;;-7.82;64.38
43298;BME280;28892;55.640;37.532;2024-02-16T08:32:35;100349.38;;;-7.58;64.83
43298;BME280;28892;55.640;37.532;2024-02-16T08:35:03;100353.00;;;-7.32;64.52
43298;BME280;28892;55.640;37.532;2024-02-16T08:37:32;100349.34;;;-7.56;64.80
43298;BME280;28892;55.640;37.532;2024-02-16T08:40:16;100352.75;;;-7.55;64.47
43298;BME280;28892;55.640;37.532;2024-02-16T08:42:44;100357.59;;;-7.43;64.39
43298;BME280;28892;55.640;37.532;2024-02-16T08:45:10;100354.06;;;-7.75;65.01
43298;BME280;28892;55.640;37.532;2024-02-16T08:47:39;100351.69;;;-7.47;65.50
43298;BME280;28892;55.640;37.532;2024-02-16T08:50:07;100343.28;;;-7.20;65.32
43298;BME280;28892;55.640;37.532;2024-02-16T08:52:32;100350.94;;;-6.85;64.86
43298;BME280;28892;55.640;37.532;2024-02-16T08:55:08;100352.22;;;-6.70;63.36
43298;BME280;28892;55.640;37.532;2024-02-16T08:57:35;100341.16;;;-7.72;64.29
43298;BME280;28892;55.640;37.532;2024-02-16T09:00:03;100347.75;;;-7.98;65.80
43298;BME280;28892;55.640;37.532;2024-02-16T09:02:31;100343.53;;;-7.64;66.95
43298;BME280;28892;55.640;37.532;2024-02-16T09:04:59;100347.22;;;-7.40;65.89
43298;BME280;28892;55.640;37.532;2024-02-16T09:07:27;100351.38;;;-7.69;65.19
43298;BME280;28892;55.640;37.532;2024-02-16T09:10:02;100345.66;;;-7.46;65.49
43298;BME280;28892;55.640;37.532;2024-02-16T09:12:38;100355.63;;;-7.68;65.40
43298;BME280;28892;55.640;37.532;2024-02-16T09:15:06;100352.97;;;-6.97;64.73
43298;BME280;28892;55.640;37.532;2024-02-16T09:17:35;100352.66;;;-7.18;63.85
43298;BME280;28892;55.640;37.532;2024-02-16T09:20:06;100346.72;;;-7.21;64.60
43298;BME280;28892;55.640;37.532;2024-02-16T09:22:35;100349.56;;;-6.97;64.63
43298;BME280;28892;55.640;37.532;2024-02-16T09:25:01;100350.44;;;-6.68;63.61
43298;BME280;28892;55.640;37.532;2024-02-16T09:27:28;100358.53;;;-6.81;62.75
43298;BME280;28892;55.640;37.532;2024-02-16T09:29:54;100352.28;;;-7.04;63.70
43298;BME280;28892;55.640;37.532;2024-02-16T09:32:21;100350.38;;;-7.28;63.83
43298;BME280;28892;55.640;37.532;2024-02-16T09:34:48;100339.97;;;-6.94;64.02
43298;BME280;28892;55.640;37.532;2024-02-16T09:37:15;100337.38;;;-6.94;63.56
43298;BME280;28892;55.640;37.532;2024-02-16T09:39:41;100337.72;;;-6.75;63.68
43298;BME280;28892;55.640;37.532;2024-02-16T09:42:08;100334.53;;;-6.53;63.24
43298;BME280;28892;55.640;37.532;2024-02-16T09:44:38;100333.41;;;-7.04;63.16
43298;BME280;28892;55.640;37.532;2024-02-16T09:47:06;100327.78;;;-6.28;62.04
43298;BME280;28892;55.640;37.532;2024-02-16T09:49:33;100328.75;;;-6.33;62.15
43298;BME280;28892;55.640;37.532;2024-02-16T09:52:05;100320.13;;;-6.32;62.10
43298;BME280;28892;55.640;37.532;2024-02-16T09:54:35;100310.91;;;-6.12;62.11
43298;BME280;28892;55.640;37.532;2024-02-16T09:57:01;100306.72;;;-5.89;61.94
43298;BME280;28892;55.640;37.532;2024-02-16T09:59:30;100303.53;;;-5.97;61.59
43298;BME280;28892;55.640;37.532;2024-02-16T10:02:00;100297.00;;;-5.82;60.95
43298;BME280;28892;55.640;37.532;2024-02-16T10:04:26;100288.31;;;-6.32;61.55
43298;BME280;28892;55.640;37.532;2024-02-16T10:06:53;100278.41;;;-6.19;62.29
43298;BME280;28892;55.640;37.532;2024-02-16T10:09:23;100289.19;;;-6.06;62.30
43298;BME280;28892;55.640;37.532;2024-02-16T10:11:50;100286.56;;;-7.20;62.89
43298;BME280;28892;55.640;37.532;2024-02-16T10:14:21;100295.38;;;-7.29;64.58
43298;BME280;28892;55.640;37.532;2024-02-16T10:16:58;100280.13;;;-6.47;63.73
43298;BME280;28892;55.640;37.532;2024-02-16T10:19:25;100285.91;;;-6.38;62.80
43298;BME280;28892;55.640;37.532;2024-02-16T10:21:55;100279.81;;;-6.36;62.62
43298;BME280;28892;55.640;37.532;2024-02-16T10:24:34;100290.22;;;-6.39;62.77
43298;BME280;28892;55.640;37.532;2024-02-16T10:27:01;100302.41;;;-6.15;62.63
43298;BME280;28892;55.640;37.532;2024-02-16T10:29:27;100298.31;;;-5.96;62.38
43298;BME280;28892;55.640;37.532;2024-02-16T10:31:55;100289.75;;;-5.71;61.69
43298;BME280;28892;55.640;37.532;2024-02-16T10:34:21;100303.31;;;-6.45;61.63
43298;BME280;28892;55.640;37.532;2024-02-16T10:36:50;100305.47;;;-6.90;63.14
43298;BME280;28892;55.640;37.532;2024-02-16T10:39:17;100292.94;;;-6.43;63.05
43298;BME280;28892;55.640;37.532;2024-02-16T10:41:44;100289.38;;;-5.85;61.79
43298;BME280;28892;55.640;37.532;2024-02-16T10:44:11;100296.31;;;-6.13;61.37
43298;BME280;28892;55.640;37.532;2024-02-16T10:46:39;100291.00;;;-6.08;62.04
43298;BME280;28892;55.640;37.532;2024-02-16T10:49:05;100295.31;;;-5.83;61.27
43298;BME280;28892;55.640;37.532;2024-02-16T10:54:00;100284.59;;;-5.98;61.32
43298;BME280;28892;55.640;37.532;2024-02-16T10:56:32;100291.59;;;-6.57;62.06
43298;BME280;28892;55.640;37.532;2024-02-16T10:59:02;100294.69;;;-6.44;62.61
43298;BME280;28892;55.640;37.532;2024-02-16T11:01:37;100290.31;;;-5.88;61.90
43298;BME280;28892;55.640;37.532;2024-02-16T11:04:03;100300.50;;;-6.37;61.69
43298;BME280;28892;55.640;37.532;2024-02-16T11:06:29;100295.56;;;-6.45;62.40
43298;BME280;28892;55.640;37.532;2024-02-16T11:09:00;100303.97;;;-5.84;61.64
43298;BME280;28892;55.640;37.532;2024-02-16T11:11:27;100309.78;;;-6.32;61.28
43298;BME280;28892;55.640;37.532;2024-02-16T11:13:56;100308.38;;;-6.42;62.09
43298;BME280;28892;55.640;37.532;2024-02-16T11:16:23;100299.72;;;-6.12;62.22
43298;BME280;28892;55.640;37.532;2024-02-16T11:18:49;100292.66;;;-5.55;61.24
43298;BME280;28892;55.640;37.532;2024-02-16T11:21:18;100302.38;;;-5.36;60.75
43298;BME280;28892;55.640;37.532;2024-02-16T11:23:44;100299.31;;;-5.22;60.56
43298;BME280;28892;55.640;37.532;2024-02-16T11:26:11;100294.41;;;-5.30;60.35
43298;BME280;28892;55.640;37.532;2024-02-16T11:28:41;100292.38;;;-6.25;60.81
43298;BME280;28892;55.640;37.532;2024-02-16T11:31:07;100290.22;;;-6.39;61.81
43298;BME280;28892;55.640;37.532;2024-02-16T11:33:35;100291.00;;;-6.08;62.28
43298;BME280;28892;55.640;37.532;2024-02-16T11:36:02;100288.44;;;-6.37;62.35
43298;BME280;28892;55.640;37.532;2024-02-16T11:38:32;100294.81;;;-6.79;63.03
43298;BME280;28892;55.640;37.532;2024-02-16T11:41:02;100296.28;;;-6.98;64.05
43298;BME280;28892;55.640;37.532;2024-02-16T11:43:30;100285.53;;;-6.54;63.28
43298;BME280;28892;55.640;37.532;2024-02-16T11:45:58;100271.81;;;-6.28;63.29
43298;BME280;28892;55.640;37.532;2024-02-16T11:48:26;100282.38;;;-6.36;63.35
43298;BME280;28892;55.640;37.532;2024-02-16T11:51:01;100282.38;;;-6.64;63.38
43298;BME280;28892;55.640;37.532;2024-02-16T11:53:29;100276.56;;;-6.71;63.45
43298;BME280;28892;55.640;37.532;2024-02-16T11:55:54;100274.25;;;-6.23;64.14
43298;BME280;28892;55.640;37.532;2024-02-16T11:58:20;100278.19;;;-5.86;63.45
43298;BME280;28892;55.640;37.532;2024-02-16T12:00:46;100279.59;;;-5.26;62.00
43298;BME280;28892;55.640;37.532;2024-02-16T12:03:22;100272.50;;;-5.20;61.32
43298;BME280;28892;55.640;37.532;2024-02-16T12:05:56;100272.84;;;-5.05;60.51
43298;BME280;28892;55.640;37.532;2024-02-16T12:08:24;100267.19;;;-4.93;60.18
43298;BME280;28892;55.640;37.532;2024-02-16T12:10:55;100274.09;;;-4.93;60.44
43298;BME280;28892;55.640;37.532;2024-02-16T12:13:21;100285.31;;;-4.93;60.04
43298;BME280;28892;55.640;37.532;2024-02-16T12:15:48;100276.69;;;-4.93;60.06
43298;BME280;28892;55.640;37.532;2024-02-16T12:18:21;100290.22;;;-5.34;60.29
43298;BME280;28892;55.640;37.532;2024-02-16T12:21:05;100294.75;;;-4.92;60.31
43298;BME280;28892;55.640;37.532;2024-02-16T12:23:32;100287.91;;;-5.16;59.22
43298;BME280;28892;55.640;37.532;2024-02-16T12:25:59;100293.63;;;-5.57;60.32
43298;BME280;28892;55.640;37.532;2024-02-16T12:28:26;100299.31;;;-5.48;60.21
43298;BME280;28892;55.640;37.532;2024-02-16T12:30:56;100296.25;;;-5.86;60.92
43298;BME280;28892;55.640;37.532;2024-02-16T12:33:22;100300.97;;;-6.24;62.43
43298;BME280;28892;55.640;37.532;2024-02-16T12:35:51;100295.63;;;-5.93;62.56
43298;BME280;28892;55.640;37.532;2024-02-16T12:38:16;100295.88;;;-5.73;62.28
43298;BME280;28892;55.640;37.532;2024-02-16T12:40:45;100300.34;;;-5.52;62.17
43298;BME280;28892;55.640;37.532;2024-02-16T12:43:14;100304.16;;;-5.64;60.77
43298;BME280;28892;55.640;37.532;2024-02-16T12:45:41;100304.50;;;-5.48;61.18
43298;BME280;28892;55.640;37.532;2024-02-16T12:48:07;100294.59;;;-5.11;60.39
43298;BME280;28892;55.640;37.532;2024-02-16T12:50:35;100312.16;;;-5.21;60.46
43298;BME280;28892;55.640;37.532;2024-02-16T12:53:03;100314.03;;;-5.50;60.50
43298;BME280;28892;55.640;37.532;2024-02-16T12:55:32;100299.75;;;-5.87;60.94
43298;BME280;28892;55.640;37.532;2024-02-16T12:57:58;100304.84;;;-6.11;61.93